Map

Track Data

SID SEASON NUMBER BASIN SUBBASIN NAME ISO_TIME NATURE LAT LON WMO_WIND WMO_PRES WMO_AGENCY TRACK_TYPE DIST2LAND LANDFALL IFLAG USA_AGENCY USA_ATCF_ID USA_LAT USA_LON USA_RECORD USA_STATUS USA_WIND USA_PRES USA_SSHS USA_R34_NE USA_R34_SE USA_R34_SW USA_R34_NW USA_R50_NE USA_R50_SE USA_R50_SW USA_R50_NW USA_R64_NE USA_R64_SE USA_R64_SW USA_R64_NW USA_POCI USA_ROCI USA_RMW USA_EYE TOKYO_LAT TOKYO_LON TOKYO_GRADE TOKYO_WIND TOKYO_PRES TOKYO_R50_DIR TOKYO_R50_LONG TOKYO_R50_SHORT TOKYO_R30_DIR TOKYO_R30_LONG TOKYO_R30_SHORT TOKYO_LAND CMA_LAT CMA_LON CMA_CAT CMA_WIND CMA_PRES HKO_LAT HKO_LON HKO_CAT HKO_WIND HKO_PRES NEWDELHI_LAT NEWDELHI_LON NEWDELHI_GRADE NEWDELHI_WIND NEWDELHI_PRES NEWDELHI_CI NEWDELHI_DP NEWDELHI_POCI REUNION_LAT REUNION_LON REUNION_TYPE REUNION_WIND REUNION_PRES REUNION_TNUM REUNION_CI REUNION_RMW REUNION_R34_NE REUNION_R34_SE REUNION_R34_SW REUNION_R34_NW REUNION_R50_NE REUNION_R50_SE REUNION_R50_SW REUNION_R50_NW REUNION_R64_NE REUNION_R64_SE REUNION_R64_SW REUNION_R64_NW BOM_LAT BOM_LON BOM_TYPE BOM_WIND BOM_PRES BOM_TNUM BOM_CI BOM_RMW BOM_R34_NE BOM_R34_SE BOM_R34_SW BOM_R34_NW BOM_R50_NE BOM_R50_SE BOM_R50_SW BOM_R50_NW BOM_R64_NE BOM_R64_SE BOM_R64_SW BOM_R64_NW BOM_ROCI BOM_POCI BOM_EYE BOM_POS_METHOD BOM_PRES_METHOD NADI_LAT NADI_LON NADI_CAT NADI_WIND NADI_PRES WELLINGTON_LAT WELLINGTON_LON WELLINGTON_WIND WELLINGTON_PRES DS824_LAT DS824_LON DS824_STAGE DS824_WIND DS824_PRES TD9636_LAT TD9636_LON TD9636_STAGE TD9636_WIND TD9636_PRES TD9635_LAT TD9635_LON TD9635_WIND TD9635_PRES TD9635_ROCI NEUMANN_LAT NEUMANN_LON NEUMANN_CLASS NEUMANN_WIND NEUMANN_PRES MLC_LAT MLC_LON MLC_CLASS MLC_WIND MLC_PRES USA_GUST BOM_GUST BOM_GUST_PER REUNION_GUST REUNION_GUST_PER USA_SEAHGT USA_SEARAD_NE USA_SEARAD_SE USA_SEARAD_SW USA_SEARAD_NW STORM_SPEED STORM_DIR
1872250N12338 1872 20 NA NA NOT_NAMED 1872-09-05 18:00:00 TS 12.0000 -22.5000 main 619 619 _____________O -1 12.0000 -22.5000 TD 30 11 295
1872250N12338 1872 20 NA NA NOT_NAMED 1872-09-05 21:00:00 TS 12.2377 -23.0099 main 657 652 _____________P -1 12.2377 -23.0099 TD 30 11 297
1872250N12338 1872 20 NA NA NOT_NAMED 1872-09-06 00:00:00 TS 12.5000 -23.5000 main 693 693 _____________O -1 12.5000 -23.5000 TD 30 11 301
1872250N12338 1872 20 NA NA NOT_NAMED 1872-09-06 03:00:00 TS 12.7999 -23.9575 main 733 730 _____________P -1 12.7999 -23.9575 TD 30 11 304
1872250N12338 1872 20 NA NA NOT_NAMED 1872-09-06 06:00:00 TS 13.1000 -24.4000 main 766 766 _____________O -1 13.1000 -24.4000 TD 30 10 303
1872250N12338 1872 20 NA NA NOT_NAMED 1872-09-06 09:00:00 TS 13.3574 -24.8501 main 811 811 _____________P -1 13.3574 -24.8501 TD 30 10 300
1872250N12338 1872 20 NA NA NOT_NAMED 1872-09-06 12:00:00 TS 13.6000 -25.3000 main 850 850 _____________O -1 13.6000 -25.3000 TD 30 10 299
1872250N12338 1872 20 NA NA NOT_NAMED 1872-09-06 15:00:00 TS 13.8499 -25.7501 main 900 899 _____________P -1 13.8499 -25.7501 TD 32 10 300
1872250N12338 1872 20 NA NA NOT_NAMED 1872-09-06 18:00:00 TS 14.1000 -26.2000 main 939 939 _____________O -1 14.1000 -26.2000 TS 35 10 299
1872250N12338 1872 20 NA NA NOT_NAMED 1872-09-06 21:00:00 TS 14.3424 -26.6501 main 991 991 _____________P -1 14.3424 -26.6501 TS 35 10 300
1872250N12338 1872 20 NA NA NOT_NAMED 1872-09-07 00:00:00 TS 14.6000 -27.1000 main 1033 1033 _____________O -1 14.6000 -27.1000 TS 35 10 302
1872250N12338 1872 20 NA NA NOT_NAMED 1872-09-07 03:00:00 TS 14.8774 -27.5502 main 1086 1086 _____________P -1 14.8774 -27.5502 TS 35 11 305
1872250N12338 1872 20 NA NA NOT_NAMED 1872-09-07 06:00:00 TS 15.2000 -28.0000 main 1129 1129 _____________O -1 15.2000 -28.0000 TS 35 11 309
1872250N12338 1872 20 NA NA NOT_NAMED 1872-09-07 09:00:00 TS 15.5849 -28.4501 main 1185 1185 _____________P -1 15.5849 -28.4501 TS 35 12 313
1872250N12338 1872 20 NA NA NOT_NAMED 1872-09-07 12:00:00 TS 16.0000 -28.9000 main 1231 1231 _____________O -1 16.0000 -28.9000 TS 35 12 313
1872250N12338 1872 20 NA NA NOT_NAMED 1872-09-07 15:00:00 TS 16.3999 -29.3576 main 1289 1289 _____________P -1 16.3999 -29.3576 TS 37 12 313
1872250N12338 1872 20 NA NA NOT_NAMED 1872-09-07 18:00:00 TS 16.8000 -29.8000 main 1337 1337 _____________O -1 16.8000 -29.8000 TS 40 12 314
1872250N12338 1872 20 NA NA NOT_NAMED 1872-09-07 21:00:00 TS 17.2000 -30.2226 main 1386 1386 _____________P -1 17.2000 -30.2226 TS 40 11 316
1872250N12338 1872 20 NA NA NOT_NAMED 1872-09-08 00:00:00 TS 17.6000 -30.6000 main 1436 1436 _____________O -1 17.6000 -30.6000 TS 40 10 320
1872250N12338 1872 20 NA NA NOT_NAMED 1872-09-08 03:00:00 TS 17.9999 -30.9152 main 1476 1476 _____________P -1 17.9999 -30.9152 TS 40 10 324
1872250N12338 1872 20 NA NA NOT_NAMED 1872-09-08 06:00:00 TS 18.4000 -31.2000 main 1500 1500 _____________O -1 18.4000 -31.2000 TS 40 10 325
1872250N12338 1872 20 NA NA NOT_NAMED 1872-09-08 09:00:00 TS 18.8000 -31.5076 main 1522 1522 _____________P -1 18.8000 -31.5076 TS 40 10 325
1872250N12338 1872 20 NA NA NOT_NAMED 1872-09-08 12:00:00 TS 19.2000 -31.8000 main 1545 1543 _____________O -1 19.2000 -31.8000 TS 40 10 327
1872250N12338 1872 20 NA NA NOT_NAMED 1872-09-08 15:00:00 TS 19.6000 -32.0651 main 1570 1568 _____________P -1 19.6000 -32.0651 TS 42 9 329
1872250N12338 1872 20 NA NA NOT_NAMED 1872-09-08 18:00:00 TS 20.0000 -32.3000 main 1585 1584 _____________O -1 20.0000 -32.3000 TS 45 9 333
1872250N12338 1872 20 NA NA NOT_NAMED 1872-09-08 21:00:00 TS 20.3999 -32.5077 main 1602 1601 _____________P -1 20.3999 -32.5077 TS 45 9 335
1872250N12338 1872 20 NA NA NOT_NAMED 1872-09-09 00:00:00 TS 20.8000 -32.7000 main 1620 1620 _____________O -1 20.8000 -32.7000 TS 45 9 335
1872250N12338 1872 20 NA NA NOT_NAMED 1872-09-09 03:00:00 TS 21.2000 -32.9001 main 1639 1639 _____________P -1 21.2000 -32.9001 TS 45 9 335
1872250N12338 1872 20 NA NA NOT_NAMED 1872-09-09 06:00:00 TS 21.6000 -33.1000 main 1660 1660 _____________O -1 21.6000 -33.1000 TS 45 9 335
1872250N12338 1872 20 NA NA NOT_NAMED 1872-09-09 09:00:00 TS 22.0000 -33.3075 main 1680 1680 _____________P -1 22.0000 -33.3075 TS 45 9 335
1872250N12338 1872 20 NA NA NOT_NAMED 1872-09-09 12:00:00 TS 22.4000 -33.5000 main 1699 1699 _____________O -1 22.4000 -33.5000 TS 45 9 337
1872250N12338 1872 20 NA NA NOT_NAMED 1872-09-09 15:00:00 TS 22.8000 -33.6651 main 1720 1720 _____________P -1 22.8000 -33.6651 TS 47 9 341
1872250N12338 1872 20 NA NA NOT_NAMED 1872-09-09 18:00:00 TS 23.2000 -33.8000 main 1731 1731 _____________O -1 23.2000 -33.8000 TS 50 8 344
1872250N12338 1872 20 NA NA NOT_NAMED 1872-09-09 21:00:00 TS 23.6000 -33.9151 main 1743 1743 _____________P -1 23.6000 -33.9151 TS 50 8 347
1872250N12338 1872 20 NA NA NOT_NAMED 1872-09-10 00:00:00 TS 24.0000 -34.0000 main 1756 1756 _____________O -1 24.0000 -34.0000 TS 50 8 351
1872250N12338 1872 20 NA NA NOT_NAMED 1872-09-10 03:00:00 TS 24.4000 -34.0502 main 1770 1759 _____________P -1 24.4000 -34.0502 TS 50 8 354
1872250N12338 1872 20 NA NA NOT_NAMED 1872-09-10 06:00:00 TS 24.8000 -34.1000 main 1759 1753 _____________O -1 24.8000 -34.1000 TS 50 8 350
1872250N12338 1872 20 NA NA NOT_NAMED 1872-09-10 09:00:00 TS 25.2000 -34.1999 main 1757 1751 _____________P -1 25.2000 -34.1999 TS 50 8 347
1872250N12338 1872 20 NA NA NOT_NAMED 1872-09-10 12:00:00 TS 25.6000 -34.3000 main 1756 1748 _____________O -1 25.6000 -34.3000 TS 50 8 350
1872250N12338 1872 20 NA NA NOT_NAMED 1872-09-10 15:00:00 TS 26.0000 -34.3576 main 1756 1747 _____________P -1 26.0000 -34.3576 TS 50 8 354
1872250N12338 1872 20 NA NA NOT_NAMED 1872-09-10 18:00:00 TS 26.4000 -34.4000 main 1747 1741 _____________O -1 26.4000 -34.4000 TS 50 8 354
1872250N12338 1872 20 NA NA NOT_NAMED 1872-09-10 21:00:00 TS 26.8000 -34.4575 main 1749 1742 _____________P -1 26.8000 -34.4575 TS 50 8 354
1872250N12338 1872 20 NA NA NOT_NAMED 1872-09-11 00:00:00 TS 27.2000 -34.5000 main 1742 1736 _____________O -1 27.2000 -34.5000 TS 50 8 357
1872250N12338 1872 20 NA NA NOT_NAMED 1872-09-11 03:00:00 TS 27.6000 -34.5076 main 1736 1732 _____________P -1 27.6000 -34.5076 TS 50 8 1
1872250N12338 1872 20 NA NA NOT_NAMED 1872-09-11 06:00:00 TS 28.0000 -34.5000 main 1732 1728 _____________O -1 28.0000 -34.5000 TS 50 8 1
1872250N12338 1872 20 NA NA NOT_NAMED 1872-09-11 09:00:00 TS 28.4000 -34.5074 main 1728 1726 _____________P -1 28.4000 -34.5074 TS 52 8 1
1872250N12338 1872 20 NA NA NOT_NAMED 1872-09-11 12:00:00 TS 28.8000 -34.5000 main 1726 1724 _____________O -1 28.8000 -34.5000 TS 55 8 3
1872250N12338 1872 20 NA NA NOT_NAMED 1872-09-11 15:00:00 TS 29.2000 -34.4576 main 1724 1714 _____________P -1 29.2000 -34.4576 TS 55 8 6
1872250N12338 1872 20 NA NA NOT_NAMED 1872-09-11 18:00:00 TS 29.6000 -34.4000 main 1714 1714 _____________O -1 29.6000 -34.4000 TS 55 8 7
1872250N12338 1872 20 NA NA NOT_NAMED 1872-09-11 21:00:00 TS 30.0000 -34.3500 main 1706 1706 _____________P -1 30.0000 -34.3500 TS 57 8 6
1872250N12338 1872 20 NA NA NOT_NAMED 1872-09-12 00:00:00 TS 30.4000 -34.3000 main 1708 1708 _____________O -1 30.4000 -34.3000 TS 60 8 6
1872250N12338 1872 20 NA NA NOT_NAMED 1872-09-12 03:00:00 TS 30.7700 -34.2573 main 1711 1702 _____________P -1 30.7700 -34.2573 TS 60 8 6
1872250N12338 1872 20 NA NA NOT_NAMED 1872-09-12 06:00:00 TS 31.2000 -34.2000 main 1706 1701 _____________O -1 31.2000 -34.2000 TS 60 10 7
1872250N12338 1872 20 NA NA NOT_NAMED 1872-09-12 09:00:00 TS 31.7700 -34.1076 main 1705 1702 _____________P -1 31.7700 -34.1076 TS 60 12 8
1872250N12338 1872 20 NA NA NOT_NAMED 1872-09-12 12:00:00 TS 32.4000 -34.0000 main 1708 1708 _____________O -1 32.4000 -34.0000 TS 60 12 7
1872250N12338 1872 20 NA NA NOT_NAMED 1872-09-12 15:00:00 TS 32.9999 -33.9146 main 1713 1713 _____________P -1 32.9999 -33.9146 TS 62 12 8
1872250N12338 1872 20 NA NA NOT_NAMED 1872-09-12 18:00:00 TS 33.6000 -33.8000 main 1720 1717 _____________O -1 33.6000 -33.8000 HU 65 12 12
1872250N12338 1872 20 NA NA NOT_NAMED 1872-09-12 21:00:00 TS 34.2000 -33.6150 main 1722 1720 _____________P -1 34.2000 -33.6150 HU 65 12 15
1872250N12338 1872 20 NA NA NOT_NAMED 1872-09-13 00:00:00 TS 34.8000 -33.4000 main 1726 1726 _____________O -1 34.8000 -33.4000 HU 65 13 16
1872250N12338 1872 20 NA NA NOT_NAMED 1872-09-13 03:00:00 TS 35.4000 -33.1997 main 1734 1734 _____________P -1 35.4000 -33.1997 HU 65 12 15
1872250N12338 1872 20 NA NA NOT_NAMED 1872-09-13 06:00:00 TS 36.0000 -33.0000 main 1744 1744 _____________O -1 36.0000 -33.0000 HU 65 12 15
1872250N12338 1872 20 NA NA NOT_NAMED 1872-09-13 09:00:00 TS 36.6000 -32.7997 main 1757 1757 _____________P -1 36.6000 -32.7997 HU 65 12 15
1872250N12338 1872 20 NA NA NOT_NAMED 1872-09-13 12:00:00 TS 37.2000 -32.6000 main 1773 1773 _____________O -1 37.2000 -32.6000 HU 65 12 15
1872250N12338 1872 20 NA NA NOT_NAMED 1872-09-13 15:00:00 TS 37.7925 -32.3996 main 1792 1792 _____________P -1 37.7925 -32.3996 HU 65 12 15
1872250N12338 1872 20 NA NA NOT_NAMED 1872-09-13 18:00:00 TS 38.4000 -32.2000 main 1813 1813 _____________O -1 38.4000 -32.2000 HU 65 13 14
1872250N12338 1872 20 NA NA NOT_NAMED 1872-09-13 21:00:00 TS 39.0500 -31.9925 main 1844 1837 _____________P -1 39.0500 -31.9925 HU 65 13 14
1872250N12338 1872 20 NA NA NOT_NAMED 1872-09-14 00:00:00 TS 39.7000 -31.8000 main 1871 1842 _____________O -1 39.7000 -31.8000 HU 65 13 12
1872250N12338 1872 20 NA NA NOT_NAMED 1872-09-14 03:00:00 TS 40.3149 -31.6420 main 1849 1821 _____________P -1 40.3149 -31.6420 HU 65 12 11
1872250N12338 1872 20 NA NA NOT_NAMED 1872-09-14 06:00:00 TS 40.9000 -31.5000 main 1821 1801 _____________O -1 40.9000 -31.5000 HU 65 12 11
1872250N12338 1872 20 NA NA NOT_NAMED 1872-09-14 09:00:00 TS 41.4575 -31.3424 main 1802 1783 _____________P -1 41.4575 -31.3424 HU 62 11 12
1872250N12338 1872 20 NA NA NOT_NAMED 1872-09-14 12:00:00 TS 42.0000 -31.2000 main 1783 1766 _____________O -1 42.0000 -31.2000 TS 60 11 10
1872250N12338 1872 20 NA NA NOT_NAMED 1872-09-14 15:00:00 TS 42.5425 -31.0848 main 1766 1745 _____________P -1 42.5425 -31.0848 TS 57 11 8
1872250N12338 1872 20 NA NA NOT_NAMED 1872-09-14 18:00:00 TS 43.1000 -31.0000 main 1745 1719 _____________O -1 43.1000 -31.0000 TS 55 12 5
1872250N12338 1872 20 NA NA NOT_NAMED 1872-09-14 21:00:00 TS 43.6925 -30.9495 main 1727 1703 _____________P -1 43.6925 -30.9495 TS 52 12 3
1872250N12338 1872 20 NA NA NOT_NAMED 1872-09-15 00:00:00 TS 44.3000 -30.9000 main 1703 1677 _____________O -1 44.3000 -30.9000 TS 50 12 4
1872250N12338 1872 20 NA NA NOT_NAMED 1872-09-15 03:00:00 TS 44.9025 -30.8132 main 1677 1633 _____________P -1 44.9025 -30.8132 TS 45 12 7
1872250N12338 1872 20 NA NA NOT_NAMED 1872-09-15 06:00:00 TS 45.5000 -30.7000 main 1633 _____________O -1 45.5000 -30.7000 TS 40 12 8

About IBTrACS Database

This database is a web-friendly format of International Best Track Archive for Climate Stewardship (IBTrACS), a global best track data archive curated by NOAA dating back to 1842.

Updated: 2021-10-19